Time;durP1;ratioP1;P1;durP2;ratioP2;P2;SDS_P1;SDS_P2;PMS_P1;PMS_P2;Temp;Humidity;BMP_temperature;BMP_pressure;BME280_temperature;BME280_humidity;BME280_pressure;Samples;Min_cycle;Max_cycle;Signal;HPM_P1;HPM_P2
2022/06/23 00:01:22;;;;;;;17.10;12.83;;;;;;;20.95;100.00;97825.09;4137658;28;20657;-87
2022/06/23 00:03:29;;;;;;;15.70;13.90;;;;;;;20.98;100.00;97822.09;4122732;28;20639;-86
2022/06/23 00:05:37;;;;;;;15.60;12.23;;;;;;;21.00;100.00;97817.44;4138148;28;21197;-86
2022/06/23 00:07:44;;;;;;;15.07;12.77;;;;;;;21.01;100.00;97823.56;4118594;28;21049;-87
2022/06/23 00:09:52;;;;;;;18.10;13.53;;;;;;;21.02;100.00;97822.59;4137689;28;20639;-86
2022/06/23 00:11:55;;;;;;;14.03;10.97;;;;;;;21.04;100.00;97823.22;4120725;28;20715;-86
2022/06/23 00:14:12;;;;;;;18.30;14.17;;;;;;;21.05;100.00;97822.19;4123649;28;20639;-86
2022/06/23 00:16:25;;;;;;;20.67;14.20;;;;;;;21.00;100.00;97819.25;4122219;28;20648;-86
2022/06/23 00:18:33;;;;;;;18.20;13.13;;;;;;;20.98;100.00;97806.16;4120090;28;20786;-86
2022/06/23 00:20:44;;;;;;;15.80;13.30;;;;;;;20.97;100.00;97809.00;4123538;28;20730;-86
2022/06/23 00:22:50;;;;;;;20.53;12.73;;;;;;;20.98;100.00;97808.81;4122899;28;20675;-87
2022/06/23 00:24:56;;;;;;;17.70;12.70;;;;;;;20.97;100.00;97804.53;4151120;28;21201;-86
2022/06/23 00:27:00;;;;;;;14.73;13.03;;;;;;;20.95;100.00;97801.22;4122948;28;20650;-87
2022/06/23 00:29:05;;;;;;;14.90;12.00;;;;;;;20.94;100.00;97804.88;4120291;28;21203;-87
2022/06/23 00:31:27;;;;;;;18.60;11.77;;;;;;;20.92;100.00;97806.88;4124927;28;20636;-86
2022/06/23 00:33:44;;;;;;;18.03;11.20;;;;;;;20.89;100.00;97799.25;4126923;28;20642;-86
2022/06/23 00:35:48;;;;;;;14.37;11.00;;;;;;;20.87;100.00;97803.13;4119003;28;20635;-86
2022/06/23 00:37:52;;;;;;;19.47;12.40;;;;;;;20.84;100.00;97788.38;4122806;28;20638;-86
2022/06/23 00:39:58;;;;;;;13.33;10.93;;;;;;;20.82;100.00;97793.03;4139651;28;21049;-87
2022/06/23 00:42:01;;;;;;;12.73;11.33;;;;;;;20.80;100.00;97792.34;4139263;28;21193;-86
2022/06/23 00:44:07;;;;;;;15.20;11.87;;;;;;;20.80;100.00;97786.25;4156277;28;21272;-86
2022/06/23 00:46:17;;;;;;;13.87;10.80;;;;;;;20.77;100.00;97783.94;4120432;28;21190;-86
2022/06/23 00:48:24;;;;;;;12.67;11.37;;;;;;;20.74;100.00;97784.28;4138167;28;21079;-87
2022/06/23 00:50:31;;;;;;;14.87;11.90;;;;;;;20.73;100.00;97787.09;4124401;28;20655;-87
2022/06/23 00:52:37;;;;;;;19.13;11.73;;;;;;;20.70;100.00;97792.75;4126441;28;21296;-87
2022/06/23 00:54:45;;;;;;;18.37;11.00;;;;;;;20.68;100.00;97787.63;4119514;28;21064;-87
2022/06/23 00:56:56;;;;;;;16.53;10.40;;;;;;;20.66;100.00;97789.59;4138282;28;20635;-86
2022/06/23 00:59:03;;;;;;;13.87;10.37;;;;;;;20.65;100.00;97787.94;4134010;28;21221;-87
2022/06/23 01:01:13;;;;;;;15.20;10.20;;;;;;;20.64;100.00;97791.63;4138619;28;20661;-86
2022/06/23 01:03:21;;;;;;;13.30;11.27;;;;;;;20.62;100.00;97790.94;4124106;28;20643;-87
2022/06/23 01:05:31;;;;;;;13.30;10.77;;;;;;;20.60;100.00;97795.59;4142527;28;20665;-86
2022/06/23 01:07:41;;;;;;;15.43;10.83;;;;;;;20.56;100.00;97794.28;4140628;28;21342;-86
2022/06/23 01:09:48;;;;;;;12.33;10.20;;;;;;;20.53;100.00;97793.81;4117500;28;20635;-86
2022/06/23 01:11:55;;;;;;;12.83;11.03;;;;;;;20.53;100.00;97799.13;4127948;28;21043;-86
2022/06/23 01:14:06;;;;;;;14.03;10.93;;;;;;;20.52;100.00;97798.31;4120992;28;21140;-86
2022/06/23 01:16:13;;;;;;;15.50;10.87;;;;;;;20.54;100.00;97808.72;4137480;28;20674;-86
2022/06/23 01:18:21;;;;;;;13.10;11.13;;;;;;;20.51;100.00;97809.88;4126056;28;20631;-87
2022/06/23 01:20:31;;;;;;;12.43;11.10;;;;;;;20.47;100.00;97816.53;4137036;28;20627;-86
2022/06/23 01:22:48;;;;;;;14.67;11.67;;;;;;;20.46;100.00;97816.69;4122644;28;20638;-86
2022/06/23 01:24:56;;;;;;;12.10;10.77;;;;;;;20.41;100.00;97816.41;4119131;28;20903;-87
2022/06/23 01:27:20;;;;;;;13.03;11.40;;;;;;;20.38;100.00;97820.19;4138465;28;20657;-86
2022/06/23 01:29:29;;;;;;;17.10;12.90;;;;;;;20.35;100.00;97815.25;4133679;28;21413;-86
2022/06/23 01:31:39;;;;;;;20.00;13.50;;;;;;;20.36;100.00;97798.34;4140973;28;21046;-86
2022/06/23 01:33:49;;;;;;;17.63;12.70;;;;;;;20.36;100.00;97803.66;4135649;28;20664;-87
2022/06/23 01:35:58;;;;;;;13.73;12.30;;;;;;;20.34;100.00;97799.53;4139486;28;20632;-86
2022/06/23 01:38:14;;;;;;;17.30;12.40;;;;;;;20.32;100.00;97806.00;4129524;28;20783;-86
2022/06/23 01:40:20;;;;;;;17.67;12.07;;;;;;;20.28;100.00;97810.81;4122202;28;20721;-87
2022/06/23 01:42:26;;;;;;;15.17;10.90;;;;;;;20.25;100.00;97807.69;4132619;28;20701;-86
2022/06/23 01:44:42;;;;;;;14.80;10.40;;;;;;;20.18;100.00;97798.78;4114261;28;21222;-87
2022/06/23 01:46:48;;;;;;;15.33;12.40;;;;;;;20.12;99.61;97802.09;4134069;28;20652;-86
2022/06/23 01:48:57;;;;;;;16.43;11.17;;;;;;;20.07;100.00;97801.78;4137342;28;21009;-86
2022/06/23 01:51:00;;;;;;;13.87;12.23;;;;;;;20.08;100.00;97814.03;4125164;28;20645;-86
2022/06/23 01:53:14;;;;;;;14.80;12.80;;;;;;;20.08;100.00;97816.69;4121223;28;21115;-86
2022/06/23 01:55:21;;;;;;;23.40;13.77;;;;;;;20.12;100.00;97825.94;4140639;28;22330;-86
2022/06/23 01:57:29;;;;;;;18.37;14.00;;;;;;;20.14;100.00;97810.69;4125071;28;20650;-87
2022/06/23 01:59:48;;;;;;;16.43;13.70;;;;;;;20.15;100.00;97813.19;4152350;28;20650;-86
2022/06/23 02:01:53;;;;;;;17.80;14.70;;;;;;;20.16;100.00;97819.28;4141381;28;20693;-87
2022/06/23 02:04:01;;;;;;;18.23;14.40;;;;;;;20.16;100.00;97825.44;4123127;28;21213;-86
2022/06/23 02:06:06;;;;;;;19.67;13.77;;;;;;;20.19;100.00;97832.19;4127370;28;21309;-87
2022/06/23 02:08:19;;;;;;;17.53;13.50;;;;;;;20.20;100.00;97833.88;4141363;28;20708;-87
2022/06/23 02:10:28;;;;;;;15.97;14.03;;;;;;;20.23;100.00;97834.34;4129049;28;20647;-87
2022/06/23 02:12:35;;;;;;;18.33;12.97;;;;;;;20.25;100.00;97839.47;4139446;28;20659;-87
2022/06/23 02:14:49;;;;;;;15.00;13.40;;;;;;;20.28;100.00;97836.47;4112855;28;21157;-87
2022/06/23 02:16:56;;;;;;;14.63;13.03;;;;;;;20.29;100.00;97830.19;4135391;28;20950;-87
2022/06/23 02:19:01;;;;;;;14.27;12.77;;;;;;;20.29;100.00;97830.19;4127656;28;20632;-87
2022/06/23 02:21:17;;;;;;;14.13;12.37;;;;;;;20.29;100.00;97832.84;4126387;28;20652;-87
2022/06/23 02:23:25;;;;;;;18.50;13.07;;;;;;;20.26;100.00;97834.00;4136244;28;20633;-87
2022/06/23 02:25:33;;;;;;;16.63;12.50;;;;;;;20.25;100.00;97829.72;4137692;28;21321;-87
2022/06/23 02:27:42;;;;;;;19.10;11.97;;;;;;;20.24;100.00;97837.84;4141438;28;20662;-87
2022/06/23 02:29:50;;;;;;;16.70;12.60;;;;;;;20.22;100.00;97838.00;4125057;28;20775;-87
2022/06/23 02:31:59;;;;;;;16.77;11.73;;;;;;;20.19;100.00;97826.91;4149274;28;20709;-87
2022/06/23 02:34:07;;;;;;;15.97;10.80;;;;;;;20.17;100.00;97827.06;4153130;28;20648;-87
2022/06/23 02:36:22;;;;;;;17.00;12.10;;;;;;;20.14;100.00;97824.75;4144654;28;20651;-87
2022/06/23 02:38:27;;;;;;;12.27;11.03;;;;;;;20.12;100.00;97831.25;4138508;28;20640;-87
2022/06/23 02:40:37;;;;;;;13.90;12.00;;;;;;;20.08;100.00;97825.44;4126360;28;20642;-87
2022/06/23 02:42:41;;;;;;;16.77;12.43;;;;;;;20.05;100.00;97824.97;4117581;28;20643;-87
2022/06/23 02:44:56;;;;;;;15.57;12.40;;;;;;;20.02;100.00;97825.31;4134396;28;21283;-87
2022/06/23 02:47:15;;;;;;;21.97;11.87;;;;;;;19.99;100.00;97823.81;4141677;28;20744;-87
2022/06/23 02:49:36;;;;;;;14.50;12.03;;;;;;;19.97;100.00;97823.16;4125718;28;20649;-87
2022/06/23 02:52:05;;;;;;;18.57;12.40;;;;;;;19.96;100.00;97824.16;4126751;28;20636;-86
2022/06/23 02:54:49;;;;;;;13.00;11.60;;;;;;;19.97;100.00;97825.00;4125885;28;20701;-87
2022/06/23 02:57:08;;;;;;;13.90;11.97;;;;;;;19.96;100.00;97831.28;4059239;29;20637;-87
2022/06/23 02:59:15;;;;;;;13.43;11.87;;;;;;;19.94;100.00;97836.72;4098652;28;20775;-87
2022/06/23 03:01:24;;;;;;;13.90;12.40;;;;;;;19.93;100.00;97844.84;4141083;28;20641;-86
2022/06/23 03:03:32;;;;;;;20.27;12.70;;;;;;;19.92;100.00;97837.88;4123911;28;20642;-86
2022/06/23 03:05:43;;;;;;;15.80;12.77;;;;;;;19.92;100.00;97836.09;4121633;28;20718;-86
2022/06/23 03:07:53;;;;;;;18.20;12.23;;;;;;;19.90;100.00;97837.25;4122805;28;20669;-86
2022/06/23 03:10:04;;;;;;;14.47;11.43;;;;;;;19.88;100.00;97839.25;4141459;28;20631;-87
2022/06/23 03:12:11;;;;;;;14.30;12.40;;;;;;;19.88;100.00;97839.25;4124095;28;20681;-87
2022/06/23 03:14:17;;;;;;;15.23;12.40;;;;;;;19.88;100.00;97840.06;4136313;28;20663;-86
2022/06/23 03:16:26;;;;;;;16.03;12.53;;;;;;;19.89;100.00;97854.09;4143256;28;20658;-86
2022/06/23 03:18:32;;;;;;;15.70;12.30;;;;;;;19.91;100.00;97852.16;4125664;28;20642;-86
2022/06/23 03:20:40;;;;;;;14.53;12.37;;;;;;;19.92;100.00;97864.38;4139914;28;20637;-86
2022/06/23 03:22:48;;;;;;;13.70;12.13;;;;;;;19.94;100.00;97857.91;4127254;28;20653;-86
2022/06/23 03:24:57;;;;;;;16.83;12.60;;;;;;;19.97;100.00;97865.53;4124097;28;20663;-86
2022/06/23 03:27:02;;;;;;;18.23;13.30;;;;;;;19.99;100.00;97868.00;4133184;28;20629;-86
2022/06/23 03:29:10;;;;;;;15.60;13.47;;;;;;;19.99;100.00;97866.19;4124733;28;20699;-87
2022/06/23 03:31:19;;;;;;;15.20;13.47;;;;;;;20.00;100.00;97874.97;4136721;28;20637;-87
2022/06/23 03:33:26;;;;;;;14.30;12.80;;;;;;;20.01;100.00;97866.00;4125581;28;20688;-86
2022/06/23 03:35:33;;;;;;;16.60;12.40;;;;;;;20.02;100.00;97876.44;4118172;28;20644;-87
2022/06/23 03:37:44;;;;;;;16.00;12.20;;;;;;;19.99;100.00;97868.00;4120560;28;20669;-86
2022/06/23 03:42:18;;;;;;;14.53;12.20;;;;;;;19.96;100.00;97878.94;4122616;28;21256;-86
2022/06/23 03:44:25;;;;;;;20.10;12.40;;;;;;;19.96;100.00;97882.41;4136520;28;20633;-87
2022/06/23 03:46:32;;;;;;;14.80;11.50;;;;;;;19.94;100.00;97883.59;4120071;28;20736;-86
2022/06/23 03:48:41;;;;;;;13.13;11.80;;;;;;;19.95;100.00;97882.56;4137817;28;21316;-86
2022/06/23 03:50:47;;;;;;;17.27;12.37;;;;;;;19.96;100.00;97881.59;4135125;28;20679;-87
2022/06/23 03:52:54;;;;;;;14.00;11.87;;;;;;;19.97;100.00;97886.72;4143913;28;20622;-86
2022/06/23 03:55:00;;;;;;;15.77;12.23;;;;;;;19.97;100.00;97886.72;4134138;28;20649;-86
2022/06/23 03:57:07;;;;;;;16.57;12.20;;;;;;;20.01;100.00;97884.53;4124198;28;20651;-86
2022/06/23 03:59:15;;;;;;;20.03;12.57;;;;;;;20.04;100.00;97885.06;4124731;28;20626;-87
2022/06/23 04:01:23;;;;;;;18.10;12.90;;;;;;;20.08;100.00;97896.13;4121188;28;20657;-86
2022/06/23 04:03:30;;;;;;;18.73;13.77;;;;;;;20.10;100.00;97896.78;4122297;28;20649;-86
2022/06/23 04:06:01;;;;;;;17.43;13.10;;;;;;;20.15;100.00;97895.28;4120129;28;20670;-86
2022/06/23 04:08:05;;;;;;;16.23;12.10;;;;;;;20.18;100.00;97888.84;4110314;28;20665;-86
2022/06/23 04:10:11;;;;;;;14.37;12.87;;;;;;;20.24;100.00;97893.47;4140612;28;20637;-86
2022/06/23 04:12:35;;;;;;;13.70;12.30;;;;;;;20.29;100.00;97899.91;4124350;28;20776;-86
2022/06/23 04:14:49;;;;;;;15.33;12.43;;;;;;;20.33;100.00;97893.28;4124478;28;20720;-85
2022/06/23 04:16:57;;;;;;;14.90;13.37;;;;;;;20.37;100.00;97895.41;4135994;28;20986;-86
2022/06/23 04:19:06;;;;;;;15.30;13.20;;;;;;;20.39;100.00;97888.13;4137330;28;20679;-86
2022/06/23 04:21:12;;;;;;;15.80;12.87;;;;;;;20.44;100.00;97892.91;4139710;28;20641;-85
2022/06/23 04:23:18;;;;;;;17.00;12.60;;;;;;;20.46;100.00;97899.69;4134252;28;20640;-86
2022/06/23 04:25:23;;;;;;;12.93;11.57;;;;;;;20.49;100.00;97894.06;4118529;28;20632;-86
2022/06/23 04:27:31;;;;;;;15.97;12.70;;;;;;;20.52;100.00;97899.03;4123401;28;21197;-86
2022/06/23 04:29:37;;;;;;;20.03;12.77;;;;;;;20.55;100.00;97901.34;4123358;28;20696;-85
2022/06/23 04:31:46;;;;;;;15.30;12.87;;;;;;;20.57;99.63;97904.63;4135501;28;20641;-86
2022/06/23 04:33:50;;;;;;;14.10;12.63;;;;;;;20.57;100.00;97894.03;4138588;28;20635;-86
2022/06/23 04:35:56;;;;;;;15.00;12.87;;;;;;;20.60;100.00;97890.22;4138421;28;20662;-86
2022/06/23 04:38:06;;;;;;;16.27;12.73;;;;;;;20.65;100.00;97893.16;4120474;28;20630;-86
2022/06/23 04:40:17;;;;;;;16.30;12.47;;;;;;;20.71;100.00;97890.69;4134119;28;20683;-86
2022/06/23 04:42:23;;;;;;;17.83;12.37;;;;;;;20.77;100.00;97892.66;4122913;28;20706;-86
2022/06/23 04:44:30;;;;;;;16.03;13.03;;;;;;;20.83;99.80;97897.25;4122550;28;20680;-86
2022/06/23 04:46:41;;;;;;;15.17;13.57;;;;;;;20.88;100.00;97892.25;4135783;28;20647;-86
2022/06/23 04:48:51;;;;;;;16.60;13.37;;;;;;;20.92;100.00;97890.94;4137988;28;20652;-86
2022/06/23 04:50:58;;;;;;;14.57;12.00;;;;;;;20.94;99.89;97886.25;4123770;28;20649;-86
2022/06/23 04:53:03;;;;;;;14.23;12.07;;;;;;;20.98;100.00;97891.03;4140195;28;20626;-86
2022/06/23 04:55:10;;;;;;;15.43;13.00;;;;;;;21.01;100.00;97889.88;4131883;28;20641;-86
2022/06/23 04:57:17;;;;;;;15.70;12.63;;;;;;;21.03;100.00;97883.41;4140605;28;20724;-86
2022/06/23 04:59:40;;;;;;;13.33;11.30;;;;;;;21.09;100.00;97895.94;4124032;28;20633;-86
2022/06/23 05:01:46;;;;;;;16.40;12.17;;;;;;;21.11;100.00;97890.47;4135219;28;20634;-85
2022/06/23 05:03:52;;;;;;;13.73;12.30;;;;;;;21.12;100.00;97887.66;4124668;28;21007;-86
2022/06/23 05:06:04;;;;;;;18.00;12.93;;;;;;;21.13;99.35;97891.97;4141445;28;20678;-86
2022/06/23 05:08:14;;;;;;;15.60;12.20;;;;;;;21.17;99.59;97892.44;4120336;28;20646;-86
2022/06/23 05:10:21;;;;;;;15.03;13.03;;;;;;;21.18;100.00;97888.78;4137279;28;20744;-86
2022/06/23 05:12:27;;;;;;;17.73;12.40;;;;;;;21.23;99.79;97905.00;4137871;28;20664;-86
2022/06/23 05:14:35;;;;;;;14.87;12.80;;;;;;;21.27;100.00;97907.13;4135866;28;20629;-86
2022/06/23 05:16:42;;;;;;;14.03;12.67;;;;;;;21.31;99.88;97908.44;4120784;28;21281;-86
2022/06/23 05:18:48;;;;;;;16.50;13.63;;;;;;;21.29;99.98;97908.63;4137247;28;20654;-86
2022/06/23 05:20:53;;;;;;;14.33;12.93;;;;;;;21.28;100.00;97906.97;4124775;28;20635;-86
2022/06/23 05:22:57;;;;;;;17.17;13.20;;;;;;;21.27;99.96;97914.28;4124690;28;20634;-85
2022/06/23 05:25:28;;;;;;;20.43;12.73;;;;;;;21.25;100.00;97914.44;4137461;28;20642;-86
2022/06/23 05:27:34;;;;;;;14.63;12.90;;;;;;;21.27;100.00;97915.09;4121522;28;20673;-86
2022/06/23 05:29:42;;;;;;;13.57;11.97;;;;;;;21.29;99.61;97915.75;4141289;28;21216;-86
2022/06/23 05:31:55;;;;;;;14.37;12.37;;;;;;;21.30;100.00;97912.94;4135797;28;21225;-86
2022/06/23 05:34:02;;;;;;;14.30;12.80;;;;;;;21.33;99.81;97914.41;4130812;28;21104;-86
2022/06/23 05:36:08;;;;;;;15.23;11.93;;;;;;;21.39;99.71;97917.19;4156675;28;20640;-87
2022/06/23 05:38:20;;;;;;;13.53;12.10;;;;;;;21.55;100.00;97921.59;4130550;28;20670;-93
2022/06/23 05:40:28;;;;;;;13.80;11.43;;;;;;;21.86;99.60;97920.50;4122130;28;20646;-92
2022/06/23 05:42:32;;;;;;;14.57;11.33;;;;;;;22.18;98.95;97933.53;4134797;28;20632;-92
2022/06/23 05:44:43;;;;;;;15.40;12.00;;;;;;;22.50;97.18;97921.59;4120561;28;20678;-91
2022/06/23 05:46:48;;;;;;;15.20;12.47;;;;;;;22.80;95.59;97923.25;4111603;28;20643;-91
2022/06/23 05:48:57;;;;;;;16.30;12.57;;;;;;;23.04;94.19;97923.00;4123099;28;20632;-89
2022/06/23 05:51:03;;;;;;;14.30;11.27;;;;;;;23.29;93.33;97927.81;4124328;28;20766;-91
2022/06/23 05:53:12;;;;;;;13.63;12.17;;;;;;;23.60;92.31;97929.16;4123336;28;21057;-89
2022/06/23 05:55:18;;;;;;;12.90;11.60;;;;;;;23.96;91.38;97925.47;4134983;28;20635;-90
2022/06/23 05:57:28;;;;;;;12.70;10.83;;;;;;;24.31;89.31;97933.38;4134422;28;20649;-91
2022/06/23 05:59:50;;;;;;;15.13;11.50;;;;;;;24.54;89.45;97933.97;4122255;28;20638;-91
2022/06/23 06:01:57;;;;;;;15.13;9.73;;;;;;;24.81;88.17;97943.78;4120517;28;21263;-90
2022/06/23 06:04:03;;;;;;;12.90;10.00;;;;;;;25.06;86.72;97943.13;4126676;28;20634;-90
2022/06/23 06:06:08;;;;;;;15.03;10.30;;;;;;;25.28;86.65;97942.81;4121227;28;20683;-86
2022/06/23 06:08:15;;;;;;;18.60;11.23;;;;;;;25.56;87.47;97948.06;4115063;28;21175;-86
2022/06/23 06:10:21;;;;;;;13.87;10.23;;;;;;;25.78;86.22;97945.88;4128147;28;22295;-86
2022/06/23 06:12:27;;;;;;;16.80;10.43;;;;;;;25.94;84.76;97947.38;4115163;28;21009;-86
2022/06/23 06:14:33;;;;;;;16.60;9.90;;;;;;;26.15;83.31;97945.31;4125500;28;20641;-86
2022/06/23 06:16:36;;;;;;;13.17;9.50;;;;;;;26.34;81.78;97950.72;4133769;28;20630;-86
2022/06/23 06:18:46;;;;;;;13.07;9.20;;;;;;;26.32;80.90;97936.72;4152463;28;20649;-86
2022/06/23 06:20:50;;;;;;;11.90;9.63;;;;;;;26.47;81.27;97947.22;4136315;28;20679;-86
2022/06/23 06:23:03;;;;;;;14.50;9.90;;;;;;;26.82;82.26;97942.22;4138001;28;20642;-86
2022/06/23 06:25:08;;;;;;;11.20;8.77;;;;;;;27.03;79.69;97949.19;4117683;28;21301;-86
2022/06/23 06:27:13;;;;;;;12.03;9.37;;;;;;;27.17;79.39;97948.97;4131661;28;20735;-86
2022/06/23 06:29:22;;;;;;;14.93;9.60;;;;;;;27.43;78.08;97951.53;4116167;28;20642;-85
2022/06/23 06:31:59;;;;;;;14.47;8.97;;;;;;;27.68;79.20;97950.59;4134679;28;20718;-86
2022/06/23 06:34:06;;;;;;;11.60;8.00;;;;;;;27.94;76.23;97945.91;4117419;28;20673;-86
2022/06/23 06:36:24;;;;;;;14.13;7.43;;;;;;;28.19;75.93;97944.94;4141100;28;20629;-85
2022/06/23 06:38:29;;;;;;;14.33;8.20;;;;;;;28.34;76.04;97948.13;4135903;28;20665;-85
2022/06/23 06:40:32;;;;;;;16.70;8.77;;;;;;;28.45;76.43;97939.34;4136649;28;20633;-85
2022/06/23 06:42:37;;;;;;;13.53;8.13;;;;;;;28.60;74.71;97942.53;4134576;28;20646;-86
2022/06/23 06:44:45;;;;;;;13.57;7.47;;;;;;;28.78;71.98;97950.66;4124305;28;20738;-86
2022/06/23 06:46:48;;;;;;;11.37;6.90;;;;;;;28.89;73.10;97937.31;4141762;28;21270;-85
2022/06/23 06:48:51;;;;;;;15.73;7.03;;;;;;;28.99;71.94;97945.69;4142072;28;21089;-86
2022/06/23 06:50:58;;;;;;;15.07;8.00;;;;;;;29.01;72.05;97947.06;4139958;28;20658;-86
2022/06/23 06:53:05;;;;;;;11.97;8.27;;;;;;;28.85;71.75;97943.34;4144077;28;20623;-86
2022/06/23 06:55:18;;;;;;;14.77;8.03;;;;;;;28.93;72.07;97938.50;4124969;28;20659;-86
2022/06/23 06:57:25;;;;;;;13.50;7.87;;;;;;;29.18;72.98;97948.16;4139332;28;20979;-86
2022/06/23 06:59:55;;;;;;;14.10;7.40;;;;;;;29.38;70.22;97943.38;4124004;28;20635;-86
2022/06/23 07:02:00;;;;;;;13.10;7.00;;;;;;;29.24;72.60;97944.56;4139452;28;20641;-86
2022/06/23 07:04:03;;;;;;;16.97;7.67;;;;;;;29.37;74.23;97944.44;4121279;28;20637;-86
2022/06/23 07:06:10;;;;;;;10.37;6.73;;;;;;;29.70;73.59;97951.03;4141980;28;21248;-86
2022/06/23 07:08:18;;;;;;;14.07;7.47;;;;;;;29.94;72.55;97950.91;4135577;28;20713;-86
2022/06/23 07:10:25;;;;;;;10.87;7.87;;;;;;;29.98;71.98;97948.59;4140763;28;20641;-86
2022/06/23 07:12:30;;;;;;;12.37;7.40;;;;;;;30.13;71.53;97949.81;4124799;28;20949;-86
2022/06/23 07:14:38;;;;;;;9.20;7.07;;;;;;;30.14;70.83;97948.75;4138276;28;20660;-86
2022/06/23 07:16:45;;;;;;;12.43;6.97;;;;;;;29.87;71.12;97941.28;4156221;28;21063;-86
2022/06/23 07:18:51;;;;;;;13.23;7.87;;;;;;;29.53;71.29;97950.00;4119946;28;20631;-86
2022/06/23 07:21:01;;;;;;;16.30;8.63;;;;;;;29.50;72.27;97936.22;4137036;28;20678;-86
2022/06/23 07:23:09;;;;;;;12.20;7.50;;;;;;;29.79;71.53;97941.63;4127966;28;20980;-86
2022/06/23 07:25:15;;;;;;;14.57;8.13;;;;;;;30.01;71.17;97942.75;4142618;28;20654;-86
2022/06/23 07:27:24;;;;;;;13.53;7.30;;;;;;;29.93;70.33;97937.69;4143210;28;20634;-86
2022/06/23 07:29:36;;;;;;;12.77;7.20;;;;;;;29.94;70.30;97935.84;4140914;28;20701;-86
2022/06/23 07:31:46;;;;;;;12.93;7.40;;;;;;;30.21;68.60;97929.81;4125310;28;20673;-86
2022/06/23 07:33:54;;;;;;;17.67;6.77;;;;;;;30.38;68.57;97928.94;4123642;28;20650;-86
2022/06/23 07:36:04;;;;;;;11.60;6.60;;;;;;;30.47;68.25;97924.84;4147879;28;20640;-86
2022/06/23 07:38:11;;;;;;;17.70;7.90;;;;;;;30.54;68.32;97917.47;4138389;28;22162;-85
2022/06/23 07:40:14;;;;;;;12.87;8.57;;;;;;;30.48;68.36;97926.50;4134836;28;20631;-85
2022/06/23 07:42:21;;;;;;;12.70;6.97;;;;;;;30.57;70.55;97922.41;4123442;28;20635;-85
2022/06/23 07:44:28;;;;;;;14.00;6.83;;;;;;;30.64;67.77;97917.69;4139607;28;20652;-85
2022/06/23 07:46:32;;;;;;;9.93;7.50;;;;;;;30.70;68.66;97917.59;4122219;28;22246;-85
2022/06/23 07:48:37;;;;;;;11.83;6.23;;;;;;;30.39;67.62;97909.03;4137522;28;20627;-84
2022/06/23 07:50:41;;;;;;;13.73;6.80;;;;;;;29.81;67.82;97909.09;4134940;28;20652;-85
2022/06/23 07:52:46;;;;;;;14.27;6.93;;;;;;;29.74;67.79;97916.41;4135669;28;20635;-85
2022/06/23 07:54:49;;;;;;;15.10;7.07;;;;;;;30.14;67.69;97911.06;4135837;28;20707;-85
2022/06/23 07:56:53;;;;;;;14.20;6.87;;;;;;;30.33;67.09;97911.81;4149147;28;21001;-85
2022/06/23 07:58:59;;;;;;;12.53;6.63;;;;;;;30.44;67.40;97909.13;4123989;28;20698;-85
2022/06/23 08:01:06;;;;;;;12.60;6.87;;;;;;;30.76;70.51;97908.56;4129073;28;20652;-85
2022/06/23 08:03:12;;;;;;;10.13;6.83;;;;;;;31.02;68.07;97914.31;4153660;28;20679;-86
2022/06/23 08:05:20;;;;;;;13.00;6.60;;;;;;;31.09;66.28;97909.63;4120727;28;23898;-86
2022/06/23 08:07:24;;;;;;;16.53;8.10;;;;;;;30.55;66.91;97905.63;4126977;28;20641;-86
2022/06/23 08:09:30;;;;;;;15.23;7.93;;;;;;;29.98;68.24;97906.34;4125058;28;20643;-86
2022/06/23 08:14:14;;;;;;;16.43;7.17;;;;;;;30.63;71.58;97905.28;4117720;28;20691;-86
2022/06/23 08:18:41;;;;;;;13.60;7.60;;;;;;;31.14;67.83;97903.50;4139225;28;22482;-86
2022/06/23 08:20:50;;;;;;;10.53;6.20;;;;;;;31.29;68.73;97915.44;4151662;28;20629;-86
2022/06/23 08:22:54;;;;;;;10.80;6.67;;;;;;;31.47;67.07;97905.31;4148263;28;20642;-86
2022/06/23 08:24:58;;;;;;;10.17;5.97;;;;;;;31.10;65.51;97899.66;4140613;28;20716;-86
2022/06/23 08:27:28;;;;;;;17.00;7.30;;;;;;;30.61;67.99;97893.91;4125107;28;20631;-86
2022/06/23 08:29:34;;;;;;;9.80;6.27;;;;;;;30.78;68.03;97892.16;4124174;28;21044;-86
2022/06/23 08:31:38;;;;;;;12.33;6.70;;;;;;;30.88;64.82;97895.91;4136080;28;21018;-86
2022/06/23 08:34:02;;;;;;;12.03;6.30;;;;;;;30.89;64.46;97885.97;4133655;28;20697;-88
2022/06/23 08:36:11;;;;;;;10.77;6.40;;;;;;;31.01;66.59;97884.88;4139316;28;20755;-88
2022/06/23 08:38:21;;;;;;;17.90;8.50;;;;;;;31.27;66.83;97884.34;4137346;28;20719;-87
2022/06/23 08:40:32;;;;;;;11.57;6.93;;;;;;;31.30;64.25;97875.78;4119975;28;21258;-86
2022/06/23 08:42:40;;;;;;;13.77;7.00;;;;;;;31.29;67.58;97869.56;4137857;28;20652;-86
2022/06/23 08:44:50;;;;;;;13.83;7.17;;;;;;;31.55;66.77;97874.44;4122308;28;20648;-87
2022/06/23 08:46:56;;;;;;;11.10;6.73;;;;;;;31.62;65.78;97878.63;4133485;28;20645;-87
2022/06/23 08:49:03;;;;;;;14.10;6.67;;;;;;;31.51;64.57;97875.97;4143246;28;21065;-88
2022/06/23 08:51:19;;;;;;;10.70;6.03;;;;;;;31.58;65.23;97882.84;4133710;28;21027;-86
2022/06/23 08:53:27;;;;;;;9.50;7.03;;;;;;;31.34;64.90;97868.84;4147604;28;20641;-87
2022/06/23 08:55:39;;;;;;;10.80;7.00;;;;;;;30.92;66.03;97880.09;4124852;28;20638;-86
2022/06/23 08:57:59;;;;;;;12.83;6.90;;;;;;;31.03;64.55;97877.38;4122861;28;20655;-87
2022/06/23 09:00:07;;;;;;;11.60;6.77;;;;;;;31.27;64.09;97874.38;4142533;28;21231;-87
2022/06/23 09:02:16;;;;;;;12.40;6.73;;;;;;;31.40;64.30;97871.44;4124144;28;21212;-86
2022/06/23 09:04:46;;;;;;;9.67;6.70;;;;;;;31.53;63.33;97866.56;4117854;28;20760;-85
2022/06/23 09:06:55;;;;;;;12.47;7.10;;;;;;;31.53;67.22;97861.19;4137681;28;21127;-86
2022/06/23 09:09:05;;;;;;;11.73;6.13;;;;;;;31.65;62.92;97858.41;4128855;28;20648;-88
2022/06/23 09:11:14;;;;;;;11.27;8.07;;;;;;;31.61;63.03;97857.28;4137137;28;20622;-87
2022/06/23 09:13:36;;;;;;;13.20;6.80;;;;;;;31.21;62.40;97844.84;4120084;28;20642;-88
2022/06/23 09:16:09;;;;;;;14.50;6.43;;;;;;;30.50;63.95;97840.88;4114530;28;20626;-87
2022/06/23 09:18:27;;;;;;;19.20;7.03;;;;;;;30.18;64.40;97836.84;4121516;28;20636;-87
2022/06/23 09:20:58;;;;;;;13.00;7.00;;;;;;;29.87;66.79;97830.16;4125265;28;20645;-89
2022/06/23 09:23:48;;;;;;;9.00;6.40;;;;;;;29.71;67.02;97828.06;4124569;28;20638;-88
2022/06/23 09:25:55;;;;;;;13.67;7.17;;;;;;;29.58;68.89;97831.78;4123941;28;20701;-88
2022/06/23 09:28:14;;;;;;;15.47;7.10;;;;;;;29.48;68.40;97830.72;4127884;28;20653;-90
2022/06/23 09:30:22;;;;;;;12.77;6.43;;;;;;;29.40;69.43;97827.53;4116419;28;20647;-91
2022/06/23 09:32:44;;;;;;;12.60;6.33;;;;;;;29.34;69.19;97821.19;4137268;28;20660;-90
2022/06/23 09:35:02;;;;;;;13.47;7.23;;;;;;;29.20;68.52;97813.53;4125490;28;20755;-89
2022/06/23 09:37:22;;;;;;;12.17;6.50;;;;;;;29.15;69.25;97816.06;4127313;28;20644;-89
2022/06/23 09:39:48;;;;;;;12.13;6.03;;;;;;;29.37;68.57;97812.66;4123625;28;20649;-88
2022/06/23 09:42:10;;;;;;;12.67;6.70;;;;;;;29.58;67.66;97810.28;4135052;28;21256;-89
2022/06/23 09:44:32;;;;;;;19.03;7.47;;;;;;;29.52;66.92;97808.50;4140678;28;20662;-91
2022/06/23 09:46:57;;;;;;;11.47;6.17;;;;;;;29.36;67.93;97800.25;4137612;28;20662;-91
2022/06/23 09:49:13;;;;;;;11.30;6.70;;;;;;;29.42;67.61;97804.72;4125825;28;20698;-88
2022/06/23 09:51:35;;;;;;;11.60;5.97;;;;;;;29.64;66.70;97808.53;4112054;28;20641;-88
2022/06/23 09:53:53;;;;;;;11.73;6.13;;;;;;;29.92;66.31;97800.66;4126255;28;20632;-88
2022/06/23 09:56:27;;;;;;;10.00;6.33;;;;;;;30.16;66.30;97809.34;4138737;28;20668;-88
2022/06/23 09:58:51;;;;;;;10.17;6.20;;;;;;;30.38;66.16;97809.59;4132416;28;20628;-89
2022/06/23 10:01:04;;;;;;;12.77;5.90;;;;;;;30.74;67.22;97808.25;4123387;28;20685;-88
2022/06/23 10:03:15;;;;;;;10.77;5.37;;;;;;;30.99;64.05;97814.22;4135235;28;20672;-88
2022/06/23 10:05:31;;;;;;;12.17;6.60;;;;;;;31.13;63.55;97812.88;4126587;28;21050;-88